Time;durP1;ratioP1;P1;durP2;ratioP2;P2;SDS_P1;SDS_P2;PMS_P1;PMS_P2;Temp;Humidity;BMP_temperature;BMP_pressure;BME280_temperature;BME280_humidity;BME280_pressure;Samples;Min_cycle;Max_cycle;Signal;HPM_P1;HPM_P2
2023/03/29 00:01:50;;;;;;;7.28;4.05;;;6.00;99.90;;;;;;4978758;28;20056;-75
2023/03/29 00:04:18;;;;;;;7.38;3.75;;;6.00;99.90;;;;;;5013618;28;20040;-75
2023/03/29 00:06:49;;;;;;;8.70;4.10;;;5.90;99.90;;;;;;5013032;28;20666;-75
2023/03/29 00:09:17;;;;;;;6.40;3.35;;;5.90;99.90;;;;;;5008722;28;20036;-75
2023/03/29 00:11:43;;;;;;;5.63;3.75;;;5.90;99.90;;;;;;5009990;28;20063;-75
2023/03/29 00:14:15;;;;;;;6.50;3.58;;;5.90;99.90;;;;;;5027098;28;20303;-75
2023/03/29 00:16:45;;;;;;;6.18;3.80;;;5.90;99.90;;;;;;5011212;28;20056;-75
2023/03/29 00:19:11;;;;;;;9.48;3.85;;;5.90;99.90;;;;;;5002924;28;20059;-75
2023/03/29 00:21:37;;;;;;;7.55;4.07;;;5.90;99.90;;;;;;5028490;28;20495;-75
2023/03/29 00:24:03;;;;;;;8.05;3.92;;;5.90;99.90;;;;;;5000419;28;20052;-75
2023/03/29 00:26:29;;;;;;;6.22;3.70;;;5.90;99.90;;;;;;5022512;28;20503;-75
2023/03/29 00:28:57;;;;;;;5.50;4.32;;;5.90;99.90;;;;;;5000100;28;20045;-75
2023/03/29 00:31:23;;;;;;;6.60;4.40;;;5.90;99.90;;;;;;5013792;28;20040;-75
2023/03/29 00:33:49;;;;;;;6.90;4.13;;;5.90;99.90;;;;;;5029162;28;20163;-75
2023/03/29 00:36:15;;;;;;;5.55;3.95;;;5.90;99.90;;;;;;5015969;28;20045;-76
2023/03/29 00:38:41;;;;;;;6.60;4.07;;;5.90;99.90;;;;;;5019114;28;20516;-75
2023/03/29 00:41:08;;;;;;;6.00;4.15;;;5.80;99.90;;;;;;5000788;28;20131;-75
2023/03/29 00:44:28;;;;;;;5.88;4.07;;;5.80;99.90;;;;;;5030412;28;20048;-75
2023/03/29 00:46:54;;;;;;;5.88;4.15;;;5.80;99.90;;;;;;4933833;28;20062;-76
2023/03/29 00:49:20;;;;;;;5.90;4.18;;;5.80;99.90;;;;;;5021040;28;20613;-76
2023/03/29 00:51:47;;;;;;;5.75;4.15;;;5.80;99.90;;;;;;5003016;28;20064;-76
2023/03/29 00:54:17;;;;;;;6.07;4.32;;;5.80;99.90;;;;;;5029459;28;20076;-76
2023/03/29 00:56:47;;;;;;;6.55;4.82;;;5.80;99.90;;;;;;5028356;28;20051;-76
2023/03/29 00:59:21;;;;;;;7.00;4.93;;;5.80;99.90;;;;;;5026634;28;20126;-76
2023/03/29 01:01:53;;;;;;;6.15;4.65;;;5.80;99.90;;;;;;5028592;28;20051;-76
2023/03/29 01:04:23;;;;;;;6.93;4.63;;;5.80;99.90;;;;;;5027546;28;20053;-76
2023/03/29 01:07:02;;;;;;;5.88;4.90;;;5.80;99.90;;;;;;5028835;28;20557;-76
2023/03/29 01:09:32;;;;;;;7.93;5.47;;;5.80;99.90;;;;;;5012447;28;20490;-76
2023/03/29 01:12:02;;;;;;;8.40;5.75;;;5.80;99.90;;;;;;5010491;28;20195;-76
2023/03/29 01:14:34;;;;;;;7.88;5.88;;;5.80;99.90;;;;;;5029014;28;20041;-76
2023/03/29 01:17:03;;;;;;;8.50;5.68;;;5.70;99.90;;;;;;5009077;28;20143;-76
2023/03/29 01:19:46;;;;;;;8.20;5.82;;;5.70;99.90;;;;;;5010906;28;20045;-76
2023/03/29 01:22:17;;;;;;;7.30;6.03;;;5.70;99.90;;;;;;5028757;28;21438;-76
2023/03/29 01:24:59;;;;;;;13.05;6.53;;;5.60;99.90;;;;;;5011185;28;21225;-75
2023/03/29 01:27:50;;;;;;;8.57;5.93;;;5.70;99.90;;;;;;5026797;28;20076;-75
2023/03/29 01:30:35;;;;;;;9.02;6.25;;;5.70;99.90;;;;;;5024449;28;20052;-76
2023/03/29 01:33:26;;;;;;;9.65;6.13;;;5.70;99.90;;;;;;5044390;28;20114;-77
2023/03/29 01:36:22;;;;;;;7.78;5.82;;;5.70;99.90;;;;;;5043155;28;20061;-76
2023/03/29 01:38:50;;;;;;;8.88;5.85;;;5.70;99.90;;;;;;5017159;28;20048;-77
2023/03/29 01:41:16;;;;;;;8.13;6.15;;;5.70;99.90;;;;;;5005038;28;20263;-76
2023/03/29 01:44:10;;;;;;;7.57;6.28;;;5.70;99.90;;;;;;5026639;28;21137;-76
2023/03/29 01:46:46;;;;;;;9.25;6.13;;;5.70;99.90;;;;;;5022604;28;21310;-75
2023/03/29 01:49:15;;;;;;;8.25;6.22;;;5.70;99.90;;;;;;5025031;28;20064;-76
2023/03/29 01:51:46;;;;;;;9.48;6.25;;;5.70;99.90;;;;;;5029066;28;20101;-76
2023/03/29 01:54:19;;;;;;;10.02;6.72;;;5.70;99.90;;;;;;5009934;28;20056;-76
2023/03/29 01:56:49;;;;;;;8.27;6.25;;;5.70;99.90;;;;;;5027743;28;20055;-76
2023/03/29 01:59:21;;;;;;;8.82;5.95;;;5.70;99.90;;;;;;5026782;28;20045;-76
2023/03/29 02:01:53;;;;;;;9.13;6.10;;;5.70;99.90;;;;;;5023980;28;20084;-76
2023/03/29 02:04:35;;;;;;;9.95;6.35;;;5.70;99.90;;;;;;5027986;28;20560;-76
2023/03/29 02:07:03;;;;;;;8.75;6.22;;;5.70;99.90;;;;;;5012712;28;20051;-76
2023/03/29 02:09:31;;;;;;;8.15;6.30;;;5.70;99.90;;;;;;5027396;28;21500;-76
2023/03/29 02:12:01;;;;;;;9.75;6.28;;;5.70;99.90;;;;;;5013298;28;20044;-76
2023/03/29 02:14:32;;;;;;;8.95;6.10;;;5.70;99.90;;;;;;5029645;28;20045;-77
2023/03/29 02:17:24;;;;;;;9.35;6.30;;;5.70;99.90;;;;;;5027940;28;20053;-76
2023/03/29 02:19:55;;;;;;;9.40;6.32;;;5.70;99.90;;;;;;5028790;28;20147;-76
2023/03/29 02:22:29;;;;;;;8.65;6.50;;;5.70;99.90;;;;;;5028253;28;20583;-74
2023/03/29 02:24:57;;;;;;;10.27;6.95;;;5.70;99.90;;;;;;5009537;28;20610;-74
2023/03/29 02:27:28;;;;;;;9.55;7.97;;;5.70;99.90;;;;;;5013295;28;20503;-74
2023/03/29 02:29:54;;;;;;;;;;;5.70;99.90;;;;;;5029351;28;20090;-74
2023/03/29 02:32:27;;;;;;;10.75;6.80;;;5.70;99.90;;;;;;5029401;28;20022;-75
2023/03/29 02:34:59;;;;;;;9.15;6.25;;;5.70;99.90;;;;;;5028107;28;20388;-74
2023/03/29 02:37:29;;;;;;;9.88;7.10;;;5.70;99.90;;;;;;5026661;28;20045;-74
2023/03/29 02:39:57;;;;;;;8.52;7.10;;;5.70;99.90;;;;;;5029055;28;20048;-74
2023/03/29 02:42:32;;;;;;;8.65;7.38;;;5.70;99.90;;;;;;5015026;28;20049;-74
2023/03/29 02:44:59;;;;;;;8.60;7.10;;;5.70;99.90;;;;;;5027343;28;20045;-74
2023/03/29 02:47:37;;;;;;;10.57;7.25;;;5.70;99.90;;;;;;5010334;28;20052;-74
2023/03/29 02:50:03;;;;;;;8.63;7.32;;;5.70;99.90;;;;;;5027930;28;20083;-74
2023/03/29 02:52:44;;;;;;;8.90;7.13;;;5.70;99.90;;;;;;5023702;28;20132;-74
2023/03/29 02:55:16;;;;;;;8.93;6.93;;;5.70;99.90;;;;;;5027906;28;20134;-74
2023/03/29 02:57:42;;;;;;;9.98;7.93;;;5.70;99.90;;;;;;5010628;28;20622;-74
2023/03/29 03:00:10;;;;;;;10.38;7.65;;;5.70;99.90;;;;;;5011024;28;20075;-74
2023/03/29 03:02:36;;;;;;;11.35;7.88;;;5.70;99.90;;;;;;5010521;28;20078;-74
2023/03/29 03:05:03;;;;;;;9.63;8.10;;;5.70;99.90;;;;;;5027052;28;20044;-74
2023/03/29 03:07:29;;;;;;;11.80;8.73;;;5.70;99.90;;;;;;4995590;28;20135;-74
2023/03/29 03:09:55;;;;;;;9.98;8.05;;;5.70;99.90;;;;;;5025909;28;20487;-74
2023/03/29 03:12:21;;;;;;;9.75;8.02;;;5.70;99.90;;;;;;4999294;28;20044;-74
2023/03/29 03:14:47;;;;;;;9.70;8.50;;;5.70;99.90;;;;;;5011164;28;20060;-74
2023/03/29 03:17:13;;;;;;;12.45;8.63;;;5.70;99.90;;;;;;5006745;28;20181;-74
2023/03/29 03:19:38;;;;;;;12.85;8.95;;;5.70;99.90;;;;;;5005449;28;20049;-74
2023/03/29 03:22:04;;;;;;;12.27;8.70;;;5.70;99.90;;;;;;5007368;28;20041;-74
2023/03/29 03:24:31;;;;;;;9.85;8.30;;;5.70;99.90;;;;;;5006488;28;20052;-74
2023/03/29 03:26:57;;;;;;;9.75;8.68;;;5.70;99.90;;;;;;4991903;28;20433;-74
2023/03/29 03:29:24;;;;;;;10.65;9.27;;;5.70;99.90;;;;;;5005846;28;20059;-74
2023/03/29 03:31:54;;;;;;;12.75;9.88;;;5.80;99.90;;;;;;4990508;28;20523;-74
2023/03/29 03:34:20;;;;;;;12.82;9.98;;;5.80;99.90;;;;;;4975037;28;20068;-76
2023/03/29 03:36:46;;;;;;;11.45;10.00;;;5.80;99.90;;;;;;4991489;28;20680;-76
2023/03/29 03:39:13;;;;;;;12.27;10.20;;;5.80;99.90;;;;;;4989389;28;20049;-75
2023/03/29 03:41:39;;;;;;;11.93;10.20;;;5.80;99.90;;;;;;4990206;28;20052;-77
2023/03/29 03:44:05;;;;;;;11.50;10.30;;;5.80;99.90;;;;;;5007407;28;20045;-77
2023/03/29 03:46:31;;;;;;;13.63;10.48;;;5.80;99.90;;;;;;4989820;28;20053;-76
2023/03/29 03:48:58;;;;;;;11.48;10.27;;;5.80;99.90;;;;;;4989202;28;20052;-76
2023/03/29 03:51:25;;;;;;;12.68;11.02;;;5.80;99.90;;;;;;4976138;28;20502;-76
2023/03/29 03:53:50;;;;;;;15.23;11.25;;;5.80;99.90;;;;;;4990217;28;21300;-76
2023/03/29 03:56:16;;;;;;;12.73;11.13;;;5.80;99.90;;;;;;4989419;28;20048;-76
2023/03/29 03:58:43;;;;;;;14.18;11.65;;;5.80;99.90;;;;;;5006253;28;20639;-76
2023/03/29 04:01:08;;;;;;;13.45;11.70;;;5.80;99.90;;;;;;4987309;28;20060;-76
2023/03/29 04:03:36;;;;;;;13.82;11.68;;;5.80;99.90;;;;;;4970545;28;20049;-76
2023/03/29 04:06:03;;;;;;;15.80;11.90;;;5.90;99.90;;;;;;4974734;28;20072;-75
2023/03/29 04:08:29;;;;;;;12.45;10.80;;;5.90;99.90;;;;;;5007192;28;21054;-74
2023/03/29 04:10:58;;;;;;;12.60;10.85;;;5.90;99.90;;;;;;5006154;28;20053;-74
2023/03/29 04:13:26;;;;;;;14.90;12.00;;;5.90;99.90;;;;;;5006421;28;20040;-74
2023/03/29 04:15:55;;;;;;;14.10;11.93;;;5.90;99.90;;;;;;4990347;28;20061;-74
2023/03/29 04:18:22;;;;;;;12.95;11.60;;;5.90;99.90;;;;;;4992782;28;20099;-74
2023/03/29 04:20:49;;;;;;;14.05;11.32;;;5.90;99.90;;;;;;5008538;28;20938;-75
2023/03/29 04:23:14;;;;;;;13.77;10.98;;;5.90;99.90;;;;;;5011039;28;20279;-75
2023/03/29 04:25:40;;;;;;;13.50;11.70;;;6.00;99.90;;;;;;4993745;28;20529;-74
2023/03/29 04:28:08;;;;;;;14.70;11.70;;;6.00;99.90;;;;;;5011844;28;20106;-74
2023/03/29 04:30:34;;;;;;;14.43;11.15;;;6.00;99.90;;;;;;5008770;28;20834;-74
2023/03/29 04:33:00;;;;;;;14.95;12.43;;;6.00;99.90;;;;;;5011019;28;20055;-73
2023/03/29 04:35:26;;;;;;;13.63;12.13;;;6.00;99.90;;;;;;5008972;28;20048;-76
2023/03/29 04:37:55;;;;;;;13.40;12.00;;;6.00;99.90;;;;;;5011781;28;20399;-75
2023/03/29 04:40:21;;;;;;;14.50;12.35;;;5.90;99.90;;;;;;5025718;28;20612;-74
2023/03/29 04:42:47;;;;;;;16.67;12.48;;;6.00;99.90;;;;;;5032452;28;20053;-74
2023/03/29 04:45:16;;;;;;;13.50;12.10;;;6.00;99.90;;;;;;5013855;28;21710;-74
2023/03/29 04:47:44;;;;;;;13.98;12.32;;;6.00;99.90;;;;;;4995434;28;20056;-74
2023/03/29 04:50:11;;;;;;;14.18;12.13;;;6.00;99.90;;;;;;5041997;28;20042;-76
2023/03/29 04:52:37;;;;;;;13.18;11.73;;;6.00;99.90;;;;;;5012112;28;20048;-76
2023/03/29 04:55:04;;;;;;;13.43;12.02;;;6.00;99.90;;;;;;5026694;28;20040;-76
2023/03/29 04:57:30;;;;;;;14.57;11.15;;;6.00;99.90;;;;;;5012095;28;20507;-76
2023/03/29 04:59:56;;;;;;;14.13;11.57;;;6.00;99.90;;;;;;4991605;28;21577;-76
2023/03/29 05:02:22;;;;;;;14.55;12.07;;;6.00;99.90;;;;;;5013604;28;20491;-76
2023/03/29 05:04:49;;;;;;;13.98;11.68;;;6.10;99.90;;;;;;4996284;28;20087;-76
2023/03/29 05:07:16;;;;;;;14.15;12.23;;;6.10;99.90;;;;;;5011214;28;21299;-76
2023/03/29 05:09:46;;;;;;;15.60;12.18;;;6.10;99.90;;;;;;5012652;28;20052;-77
2023/03/29 05:12:11;;;;;;;16.15;12.50;;;6.10;99.90;;;;;;4998554;28;20075;-77
2023/03/29 05:14:37;;;;;;;14.85;12.23;;;6.10;99.90;;;;;;4979736;28;20560;-77
2023/03/29 05:17:03;;;;;;;13.43;12.02;;;6.10;99.90;;;;;;5011084;28;20045;-77
2023/03/29 05:19:37;;;;;;;13.45;12.00;;;6.10;99.90;;;;;;4992672;28;20056;-77
2023/03/29 05:22:05;;;;;;;15.25;12.52;;;6.10;99.90;;;;;;5027061;28;20746;-76
2023/03/29 05:24:31;;;;;;;14.77;12.90;;;6.10;99.90;;;;;;5011924;28;20044;-76
2023/03/29 05:26:57;;;;;;;14.65;12.23;;;6.10;99.90;;;;;;4996623;28;20689;-76
2023/03/29 05:29:23;;;;;;;16.80;13.27;;;6.00;99.90;;;;;;4998249;28;20071;-76
2023/03/29 05:31:51;;;;;;;15.52;12.82;;;6.10;99.90;;;;;;5005451;28;20402;-78
2023/03/29 05:34:17;;;;;;;16.42;13.32;;;6.10;99.90;;;;;;4979400;28;20044;-77
2023/03/29 05:36:44;;;;;;;16.25;13.57;;;6.10;99.90;;;;;;5000347;28;20044;-76
2023/03/29 05:39:10;;;;;;;16.63;13.85;;;6.00;99.90;;;;;;5013488;28;20126;-76
2023/03/29 05:41:36;;;;;;;17.10;13.55;;;6.10;99.90;;;;;;5008429;28;20072;-78
2023/03/29 05:44:02;;;;;;;15.70;13.45;;;6.10;99.90;;;;;;5026679;28;20917;-76
2023/03/29 05:46:28;;;;;;;16.45;13.98;;;6.10;99.90;;;;;;5001042;28;20051;-76
2023/03/29 05:48:54;;;;;;;16.00;14.30;;;6.10;99.90;;;;;;5043041;28;20044;-76
2023/03/29 05:51:23;;;;;;;15.55;13.88;;;6.10;99.90;;;;;;4999134;28;20040;-76
2023/03/29 05:53:50;;;;;;;17.08;14.68;;;6.00;99.90;;;;;;4997865;28;20053;-76
2023/03/29 05:56:17;;;;;;;15.93;14.27;;;6.00;99.90;;;;;;5013542;28;20142;-74
2023/03/29 05:58:45;;;;;;;17.33;15.50;;;6.00;99.90;;;;;;5027643;28;20131;-74
2023/03/29 06:01:16;;;;;;;16.75;14.95;;;6.00;99.90;;;;;;5010558;28;20479;-74
2023/03/29 06:03:42;;;;;;;16.98;15.27;;;6.10;99.90;;;;;;5027776;28;20538;-74
2023/03/29 06:06:09;;;;;;;16.55;14.85;;;6.00;99.90;;;;;;5025822;28;20137;-73
2023/03/29 06:08:37;;;;;;;19.23;16.52;;;6.00;99.90;;;;;;5025246;28;20037;-74
2023/03/29 06:11:07;;;;;;;20.00;16.15;;;6.00;99.90;;;;;;5006967;28;20063;-74
2023/03/29 06:13:33;;;;;;;18.83;16.80;;;6.10;99.90;;;;;;5011122;28;20060;-75
2023/03/29 06:16:00;;;;;;;19.02;16.02;;;6.10;99.90;;;;;;4997651;28;20071;-74
2023/03/29 06:18:26;;;;;;;18.25;15.32;;;6.10;99.90;;;;;;5025120;28;20517;-75
2023/03/29 06:20:55;;;;;;;19.55;15.88;;;6.10;99.90;;;;;;5009431;28;20147;-74
2023/03/29 06:23:22;;;;;;;18.38;15.75;;;6.10;99.90;;;;;;5023292;28;20048;-74
2023/03/29 06:25:50;;;;;;;18.92;16.60;;;6.10;99.90;;;;;;5026080;28;20041;-74
2023/03/29 06:28:17;;;;;;;18.80;16.90;;;6.10;99.90;;;;;;5005947;28;20063;-74
2023/03/29 06:30:47;;;;;;;19.40;17.35;;;6.10;99.90;;;;;;5007063;28;20152;-74
2023/03/29 06:33:13;;;;;;;22.08;17.90;;;6.20;99.90;;;;;;5025542;28;20055;-74
2023/03/29 06:35:45;;;;;;;18.65;16.42;;;6.20;99.90;;;;;;5012522;28;20127;-74
2023/03/29 06:38:11;;;;;;;18.40;15.75;;;6.20;99.90;;;;;;5022428;28;20437;-74
2023/03/29 06:40:37;;;;;;;19.30;16.17;;;6.20;99.90;;;;;;5007685;28;20044;-74
2023/03/29 06:43:06;;;;;;;18.52;16.02;;;6.20;99.90;;;;;;5008003;28;20112;-74
2023/03/29 06:45:34;;;;;;;16.50;14.80;;;6.20;99.90;;;;;;5014448;28;20140;-74
2023/03/29 06:48:02;;;;;;;17.23;15.52;;;6.30;99.90;;;;;;5024816;28;20048;-74
2023/03/29 06:50:28;;;;;;;19.25;16.23;;;6.30;99.90;;;;;;5026102;28;20059;-74
2023/03/29 06:52:54;;;;;;;17.27;14.63;;;6.30;99.90;;;;;;5010360;28;20094;-74
2023/03/29 06:55:21;;;;;;;18.15;15.98;;;6.30;99.90;;;;;;5027208;28;20040;-74
2023/03/29 06:57:47;;;;;;;17.80;15.18;;;6.30;99.90;;;;;;4980220;28;20048;-74
2023/03/29 07:00:18;;;;;;;16.63;14.88;;;6.40;99.90;;;;;;5007658;28;20044;-74
2023/03/29 07:02:45;;;;;;;16.05;14.38;;;6.40;99.90;;;;;;5008943;28;20064;-74
2023/03/29 07:05:13;;;;;;;16.60;14.60;;;6.40;99.90;;;;;;5009451;28;20112;-74
2023/03/29 07:07:54;;;;;;;17.38;15.00;;;6.40;99.90;;;;;;5011755;28;20106;-74
2023/03/29 07:10:21;;;;;;;16.73;14.90;;;6.40;99.90;;;;;;4999358;28;20064;-74
2023/03/29 07:12:48;;;;;;;17.33;15.00;;;6.50;99.90;;;;;;5024514;28;20052;-74
2023/03/29 07:15:14;;;;;;;16.75;14.32;;;6.50;99.90;;;;;;5025517;28;20052;-74
2023/03/29 07:17:40;;;;;;;15.50;13.90;;;6.50;99.90;;;;;;5016825;28;20094;-74
2023/03/29 07:20:11;;;;;;;16.42;14.30;;;6.60;99.90;;;;;;5010485;28;20044;-74
2023/03/29 07:22:37;;;;;;;16.45;14.27;;;6.60;99.90;;;;;;4998092;28;20118;-74
2023/03/29 07:25:03;;;;;;;14.52;12.98;;;6.60;99.90;;;;;;4993119;28;20072;-74
2023/03/29 07:27:32;;;;;;;14.98;13.38;;;6.70;99.90;;;;;;5008058;28;20048;-74
2023/03/29 07:29:58;;;;;;;14.50;13.10;;;6.70;99.90;;;;;;5015457;28;20129;-74
2023/03/29 07:32:23;;;;;;;16.40;13.60;;;6.70;99.90;;;;;;5014284;28;20044;-74
2023/03/29 07:34:50;;;;;;;15.55;13.88;;;6.80;99.90;;;;;;5009257;28;20052;-73
2023/03/29 07:37:16;;;;;;;14.30;12.77;;;6.80;99.90;;;;;;5018649;28;20067;-74
2023/03/29 07:39:41;;;;;;;14.98;13.10;;;6.90;99.90;;;;;;5002483;28;20119;-74
2023/03/29 07:42:07;;;;;;;15.63;13.27;;;6.90;99.90;;;;;;5005134;28;20048;-74
2023/03/29 07:44:34;;;;;;;14.35;12.80;;;6.90;99.90;;;;;;5000379;28;20437;-74
2023/03/29 07:47:04;;;;;;;15.25;13.73;;;6.90;99.90;;;;;;4995620;28;20051;-74
2023/03/29 07:49:33;;;;;;;14.98;12.93;;;6.90;99.90;;;;;;5025394;28;20059;-74
2023/03/29 07:51:59;;;;;;;15.18;13.10;;;7.00;99.90;;;;;;5023279;28;20064;-74
2023/03/29 07:54:25;;;;;;;15.35;12.93;;;7.00;99.90;;;;;;5006608;28;20044;-74
2023/03/29 07:56:50;;;;;;;15.35;12.63;;;7.00;99.90;;;;;;4997250;28;20162;-74
2023/03/29 07:59:16;;;;;;;15.45;13.82;;;7.00;99.90;;;;;;5023164;28;20047;-74
2023/03/29 08:01:43;;;;;;;14.98;13.38;;;7.00;99.90;;;;;;4997827;28;20098;-74
2023/03/29 08:04:09;;;;;;;15.95;13.05;;;7.00;99.90;;;;;;5007209;28;20086;-74
2023/03/29 08:06:36;;;;;;;16.52;13.05;;;7.10;99.90;;;;;;4996462;28;20136;-74
2023/03/29 08:09:02;;;;;;;15.13;12.60;;;7.10;99.90;;;;;;5022086;28;20083;-74
2023/03/29 08:11:27;;;;;;;14.15;12.40;;;7.10;99.90;;;;;;5021463;28;20182;-75
2023/03/29 08:13:53;;;;;;;13.98;12.43;;;7.20;99.90;;;;;;5007416;28;20445;-74
2023/03/29 08:16:19;;;;;;;13.38;11.95;;;7.20;99.90;;;;;;5006718;28;20045;-74
2023/03/29 08:18:45;;;;;;;17.08;12.10;;;7.30;99.90;;;;;;5010879;28;20056;-74
2023/03/29 08:21:13;;;;;;;13.90;12.40;;;7.30;99.90;;;;;;5026553;28;20063;-74
2023/03/29 08:23:39;;;;;;;13.38;11.48;;;7.30;99.90;;;;;;5009169;28;20041;-74
2023/03/29 08:26:07;;;;;;;15.10;11.57;;;7.40;99.90;;;;;;4992957;28;20044;-74
2023/03/29 08:28:33;;;;;;;14.18;12.10;;;7.50;99.90;;;;;;4992743;28;20062;-74
2023/03/29 08:31:02;;;;;;;13.27;11.18;;;7.60;99.90;;;;;;5011214;28;20052;-74
2023/03/29 08:33:28;;;;;;;12.55;10.75;;;7.70;99.90;;;;;;5024539;28;20056;-74
2023/03/29 08:35:54;;;;;;;13.00;11.35;;;7.80;99.90;;;;;;5028217;28;20075;-74
2023/03/29 08:38:20;;;;;;;11.60;10.25;;;8.00;99.90;;;;;;5012087;28;20494;-74
2023/03/29 08:40:48;;;;;;;12.23;10.80;;;8.00;99.90;;;;;;4995491;28;20720;-74
2023/03/29 08:43:40;;;;;;;11.95;10.13;;;8.00;99.90;;;;;;5010756;28;20045;-74
2023/03/29 08:46:35;;;;;;;13.88;11.65;;;8.10;99.90;;;;;;5028318;28;20121;-74
2023/03/29 08:49:07;;;;;;;12.30;11.02;;;8.20;99.90;;;;;;5030220;28;20052;-74
2023/03/29 08:51:45;;;;;;;12.02;10.55;;;8.20;99.90;;;;;;5015458;28;20159;-74
2023/03/29 08:54:20;;;;;;;13.38;11.98;;;8.30;99.90;;;;;;5030578;28;21371;-74
2023/03/29 08:56:52;;;;;;;15.10;12.07;;;8.30;99.90;;;;;;5029734;28;20306;-74
2023/03/29 08:59:30;;;;;;;14.88;12.18;;;8.30;99.90;;;;;;5015204;28;20044;-74
2023/03/29 09:01:58;;;;;;;15.60;11.40;;;8.40;99.90;;;;;;5014588;28;20152;-74
2023/03/29 09:04:35;;;;;;;15.75;10.85;;;8.50;99.90;;;;;;5029719;28;20497;-75
2023/03/29 09:07:09;;;;;;;14.07;11.13;;;8.60;99.90;;;;;;5030562;28;20083;-74
2023/03/29 09:09:36;;;;;;;12.50;11.20;;;8.70;99.90;;;;;;5012956;28;20048;-75
2023/03/29 09:12:46;;;;;;;11.05;9.95;;;8.80;99.90;;;;;;5030032;28;20449;-75
2023/03/29 09:15:26;;;;;;;13.30;9.73;;;9.00;99.90;;;;;;5028728;28;20056;-75
2023/03/29 09:18:04;;;;;;;13.57;9.98;;;9.10;99.90;;;;;;5030258;28;20154;-74
2023/03/29 09:20:36;;;;;;;11.88;10.25;;;9.10;99.90;;;;;;5025868;28;20058;-76
2023/03/29 09:23:21;;;;;;;13.00;9.77;;;9.20;99.90;;;;;;5027011;28;20041;-75
2023/03/29 09:25:53;;;;;;;15.45;11.02;;;9.20;99.90;;;;;;5026783;28;20052;-75
2023/03/29 09:28:33;;;;;;;13.55;10.05;;;9.40;99.90;;;;;;5027358;28;20095;-75
2023/03/29 09:31:03;;;;;;;;;;;9.50;99.90;;;;;;5011311;28;20044;-76
2023/03/29 09:33:41;;;;;;;16.23;11.02;;;9.50;99.90;;;;;;5027473;28;20022;-75
2023/03/29 09:36:24;;;;;;;14.35;10.63;;;9.60;99.90;;;;;;5026079;28;20190;-75
2023/03/29 09:38:53;;;;;;;10.93;9.65;;;9.60;99.90;;;;;;5010411;28;20160;-75
2023/03/29 09:41:25;;;;;;;13.52;10.48;;;9.60;99.90;;;;;;5015593;28;20048;-75
2023/03/29 09:43:57;;;;;;;17.23;10.68;;;9.70;99.90;;;;;;5026610;28;20123;-76
2023/03/29 09:46:33;;;;;;;14.75;10.23;;;9.80;99.90;;;;;;5027967;28;20056;-76
2023/03/29 09:49:00;;;;;;;11.38;9.88;;;9.80;99.90;;;;;;5006992;28;20790;-76
2023/03/29 09:51:29;;;;;;;13.25;10.60;;;9.90;99.90;;;;;;4988012;28;20091;-75
2023/03/29 09:53:56;;;;;;;13.18;10.57;;;9.90;99.90;;;;;;5010568;28;20076;-76
2023/03/29 09:56:22;;;;;;;12.38;11.07;;;9.90;99.90;;;;;;5015406;28;20071;-76
2023/03/29 09:58:48;;;;;;;12.18;10.65;;;10.00;99.90;;;;;;4999957;28;20139;-75
2023/03/29 10:01:16;;;;;;;14.52;10.95;;;10.00;99.90;;;;;;5026587;28;20598;-75
2023/03/29 10:03:47;;;;;;;12.55;11.05;;;10.00;99.90;;;;;;5025870;28;20112;-75
2023/03/29 10:06:13;;;;;;;13.82;11.52;;;10.10;99.90;;;;;;5026882;28;20045;-75
2023/03/29 10:08:45;;;;;;;13.25;10.80;;;10.10;99.90;;;;;;5008225;28;20119;-76
2023/03/29 10:11:28;;;;;;;16.33;11.70;;;10.10;99.90;;;;;;5009353;28;20046;-75
2023/03/29 10:13:59;;;;;;;13.40;12.00;;;10.10;99.90;;;;;;5022464;28;20106;-76
2023/03/29 10:16:40;;;;;;;14.02;11.55;;;10.20;99.90;;;;;;5026514;28;20048;-75
2023/03/29 10:19:33;;;;;;;15.00;11.23;;;10.20;99.90;;;;;;5008203;28;20055;-75
2023/03/29 10:22:03;;;;;;;15.57;11.45;;;10.30;99.90;;;;;;5025655;28;20506;-76
2023/03/29 10:24:32;;;;;;;16.58;11.77;;;10.30;99.90;;;;;;5010740;28;20102;-75
2023/03/29 10:27:05;;;;;;;14.93;12.52;;;10.40;99.90;;;;;;5017523;28;20139;-76
2023/03/29 10:29:41;;;;;;;15.77;12.55;;;10.40;99.90;;;;;;5011471;28;20044;-76
2023/03/29 10:32:25;;;;;;;14.68;12.35;;;10.50;99.90;;;;;;4980885;28;20040;-76
2023/03/29 10:34:52;;;;;;;16.70;13.43;;;10.50;99.90;;;;;;5010162;28;20128;-76
2023/03/29 10:37:19;;;;;;;15.95;13.10;;;10.50;99.90;;;;;;5009777;28;20036;-76
2023/03/29 10:39:50;;;;;;;17.77;12.25;;;10.60;99.90;;;;;;5006518;28;21626;-77
2023/03/29 10:42:19;;;;;;;15.77;13.23;;;10.60;99.90;;;;;;5024136;28;20418;-76
2023/03/29 10:44:58;;;;;;;15.60;13.98;;;10.70;99.90;;;;;;5008795;28;20044;-77
2023/03/29 10:47:25;;;;;;;15.10;13.20;;;10.80;99.90;;;;;;5011255;28;20048;-76
2023/03/29 10:49:54;;;;;;;16.17;14.32;;;10.80;99.90;;;;;;5007197;28;20052;-75
2023/03/29 10:52:20;;;;;;;16.73;13.48;;;10.90;99.90;;;;;;5024232;28;20047;-75
2023/03/29 10:54:48;;;;;;;14.80;13.20;;;11.00;99.90;;;;;;5008771;28;20503;-74
2023/03/29 10:57:51;;;;;;;15.23;12.98;;;11.10;99.90;;;;;;5013599;28;20570;-75
2023/03/29 11:00:30;;;;;;;14.20;12.77;;;11.20;99.90;;;;;;5006942;28;20670;-75
2023/03/29 11:03:12;;;;;;;14.95;12.77;;;11.30;99.90;;;;;;5026408;28;20053;-74
2023/03/29 11:06:00;;;;;;;14.77;13.27;;;11.40;99.90;;;;;;5025485;28;20581;-75
2023/03/29 11:08:27;;;;;;;16.30;13.63;;;11.40;99.90;;;;;;5027754;28;20070;-75
2023/03/29 11:11:02;;;;;;;14.77;13.27;;;11.50;99.90;;;;;;5008057;28;20102;-75
2023/03/29 11:13:50;;;;;;;16.67;13.65;;;11.50;99.90;;;;;;5025834;28;20426;-75
2023/03/29 11:16:19;;;;;;;14.32;12.85;;;11.70;99.90;;;;;;5007310;28;20139;-75
2023/03/29 11:19:03;;;;;;;14.65;12.40;;;11.80;99.90;;;;;;5024302;28;20056;-75
2023/03/29 11:21:45;;;;;;;14.00;12.07;;;11.90;99.90;;;;;;5025779;28;20151;-75
2023/03/29 11:24:33;;;;;;;14.02;12.23;;;12.00;99.90;;;;;;5023447;28;20142;-75
2023/03/29 11:27:22;;;;;;;13.32;12.02;;;12.10;99.90;;;;;;5010469;28;20048;-75
2023/03/29 11:30:05;;;;;;;13.75;11.48;;;12.20;99.90;;;;;;5024251;28;20057;-75
2023/03/29 11:32:40;;;;;;;14.60;12.07;;;12.40;99.90;;;;;;5006965;28;20052;-75
2023/03/29 11:35:30;;;;;;;12.55;10.95;;;12.50;99.90;;;;;;5009362;28;20140;-75
2023/03/29 11:38:21;;;;;;;13.20;10.52;;;12.60;99.90;;;;;;5042507;28;20052;-75
2023/03/29 11:41:01;;;;;;;12.07;9.73;;;12.60;99.90;;;;;;5007825;28;20063;-75
2023/03/29 11:43:36;;;;;;;10.90;9.27;;;12.60;99.90;;;;;;5008367;28;20045;-75
2023/03/29 11:46:16;;;;;;;11.70;9.45;;;12.60;99.90;;;;;;5024858;28;20087;-75
2023/03/29 11:48:54;;;;;;;11.25;10.02;;;12.60;99.90;;;;;;5019736;28;20056;-75
2023/03/29 11:51:31;;;;;;;11.30;10.23;;;12.60;99.90;;;;;;5024995;28;20565;-75
2023/03/29 11:54:17;;;;;;;11.45;9.90;;;12.70;99.90;;;;;;5006579;28;20049;-75
2023/03/29 11:56:47;;;;;;;11.15;9.85;;;12.70;99.90;;;;;;5025005;28;20555;-75
2023/03/29 11:59:24;;;;;;;12.35;10.10;;;12.80;99.90;;;;;;5024284;28;21707;-75
2023/03/29 12:02:32;;;;;;;11.55;8.90;;;12.80;99.90;;;;;;5023709;28;20655;-75
2023/03/29 12:05:09;;;;;;;11.00;9.27;;;12.90;99.90;;;;;;4997141;28;21287;-75
2023/03/29 12:08:07;;;;;;;11.90;9.38;;;12.90;99.90;;;;;;5024517;28;20070;-75
2023/03/29 12:10:48;;;;;;;10.73;8.45;;;13.00;99.90;;;;;;5025249;28;20052;-75
2023/03/29 12:13:26;;;;;;;10.63;9.05;;;13.10;99.90;;;;;;5028340;28;20059;-75
2023/03/29 12:16:15;;;;;;;8.95;7.97;;;13.30;99.90;;;;;;5028824;28;20044;-75
2023/03/29 12:18:44;;;;;;;9.65;8.65;;;13.40;99.90;;;;;;5011631;28;20522;-75
2023/03/29 12:21:21;;;;;;;9.55;8.60;;;13.50;99.90;;;;;;5010448;28;20057;-75
2023/03/29 12:23:48;;;;;;;10.60;8.15;;;13.50;99.90;;;;;;5029287;28;20099;-75
2023/03/29 12:26:24;;;;;;;10.55;8.32;;;13.50;99.90;;;;;;5019995;28;20171;-74
2023/03/29 12:29:20;;;;;;;10.35;9.35;;;13.50;99.90;;;;;;5028484;28;20040;-75
2023/03/29 12:32:08;;;;;;;11.40;8.82;;;13.50;99.90;;;;;;5028635;28;20051;-75
2023/03/29 12:35:18;;;;;;;11.68;9.13;;;13.40;99.90;;;;;;5013947;28;20380;-75
2023/03/29 12:38:18;;;;;;;11.02;8.50;;;13.40;99.90;;;;;;4980872;28;20535;-75
2023/03/29 12:40:47;;;;;;;9.15;7.93;;;13.50;99.90;;;;;;5012683;28;20418;-75
2023/03/29 12:43:23;;;;;;;10.93;9.00;;;13.50;99.90;;;;;;5009769;28;20562;-74
2023/03/29 12:45:56;;;;;;;10.57;8.52;;;13.50;99.90;;;;;;5027685;28;20044;-75
2023/03/29 12:48:28;;;;;;;10.98;9.30;;;13.50;99.90;;;;;;5026776;28;20392;-75
2023/03/29 12:51:11;;;;;;;10.30;8.90;;;13.40;99.90;;;;;;5027482;28;21040;-75
2023/03/29 12:54:13;;;;;;;11.32;8.95;;;13.40;99.90;;;;;;5009940;28;20059;-74
2023/03/29 12:56:50;;;;;;;10.63;9.20;;;13.40;99.90;;;;;;5027465;28;20048;-75
2023/03/29 12:59:26;;;;;;;11.98;9.57;;;13.30;99.90;;;;;;5027150;28;20047;-75
2023/03/29 13:02:22;;;;;;;10.15;8.70;;;13.40;99.90;;;;;;5026581;28;21394;-75
2023/03/29 13:04:54;;;;;;;10.30;8.98;;;13.50;99.90;;;;;;5008827;28;20052;-75